createdAt,value
2017-05-06T00:00:29.413Z,0
2017-05-06T00:01:29.088Z,0
2017-05-06T00:02:29.378Z,0
2017-05-06T00:03:29.653Z,0
2017-05-06T00:04:29.052Z,0
2017-05-06T00:05:29.614Z,0
2017-05-06T00:06:29.284Z,0
2017-05-06T00:07:29.570Z,0
2017-05-06T00:08:28.935Z,0
2017-05-06T00:09:29.219Z,0
2017-05-06T00:10:29.178Z,0
2017-05-06T00:11:29.170Z,0
2017-05-06T00:12:29.147Z,0
2017-05-06T00:13:29.119Z,0
2017-05-06T00:14:29.441Z,0
2017-05-06T00:15:29.092Z,0
2017-05-06T00:16:29.108Z,0
2017-05-06T00:17:29.030Z,0
2017-05-06T00:18:29.315Z,0
2017-05-06T00:19:28.998Z,0
2017-05-06T00:20:28.992Z,0
2017-05-06T00:21:28.943Z,0
2017-05-06T00:22:28.944Z,0
2017-05-06T00:23:28.895Z,0
2017-05-06T00:24:29.198Z,0
2017-05-06T00:25:29.188Z,0
2017-05-06T00:26:29.174Z,0
2017-05-06T00:27:28.809Z,0
2017-05-06T00:28:29.105Z,0
2017-05-06T00:29:28.782Z,0
2017-05-06T00:30:28.750Z,0
2017-05-06T00:31:29.039Z,0
2017-05-06T00:32:28.732Z,0
2017-05-06T00:33:29.008Z,0
2017-05-06T00:34:29.009Z,0
2017-05-06T00:35:28.985Z,0
2017-05-06T00:36:29.043Z,0
2017-05-06T00:37:28.405Z,0
2017-05-06T00:38:28.593Z,0
2017-05-06T00:39:28.572Z,0
2017-05-06T00:40:28.916Z,0
2017-05-06T00:41:28.514Z,0
2017-05-06T00:42:28.209Z,0
2017-05-06T00:43:28.822Z,0
2017-05-06T00:44:28.821Z,0
2017-05-06T00:45:28.460Z,0
2017-05-06T00:46:28.462Z,0
2017-05-06T00:47:28.381Z,0
2017-05-06T00:48:28.375Z,0
2017-05-06T00:49:28.361Z,0
2017-05-06T00:50:28.323Z,0
2017-05-06T00:51:28.672Z,0
2017-05-06T00:52:28.606Z,0
2017-05-06T00:53:28.594Z,0
2017-05-06T00:54:28.604Z,0
2017-05-06T00:55:27.911Z,0
2017-05-06T00:56:28.604Z,0
2017-05-06T00:57:28.532Z,0
2017-05-06T00:58:27.614Z,0
2017-05-06T00:59:28.140Z,0
2017-05-06T01:00:27.842Z,0
2017-05-06T01:01:27.783Z,0
2017-05-06T01:02:28.445Z,0
2017-05-06T01:03:28.457Z,0
2017-05-06T01:04:28.433Z,0
2017-05-06T01:05:28.106Z,0
2017-05-06T01:06:27.780Z,0
2017-05-06T01:07:27.703Z,0
2017-05-06T01:08:27.943Z,0
2017-05-06T01:09:28.032Z,0
2017-05-06T01:10:27.943Z,0
2017-05-06T01:11:27.681Z,0
2017-05-06T01:12:27.340Z,0
2017-05-06T01:13:28.238Z,0
2017-05-06T01:14:28.183Z,0
2017-05-06T01:15:27.478Z,0
2017-05-06T01:16:28.083Z,0
2017-05-06T01:17:27.822Z,0
2017-05-06T01:18:27.404Z,0
2017-05-06T01:19:27.718Z,0
2017-05-06T01:20:27.063Z,0
2017-05-06T01:21:27.733Z,0
2017-05-06T01:22:27.721Z,0
2017-05-06T01:23:27.990Z,0
2017-05-06T01:24:27.615Z,0
2017-05-06T01:25:27.893Z,0
2017-05-06T01:26:27.573Z,0
2017-05-06T01:27:27.844Z,0
2017-05-06T01:28:27.502Z,0
2017-05-06T01:29:27.575Z,0
2017-05-06T01:30:27.462Z,0
2017-05-06T01:31:27.444Z,0
2017-05-06T01:32:27.761Z,0
2017-05-06T01:33:27.082Z,0
2017-05-06T01:34:27.407Z,0
2017-05-06T01:35:26.754Z,0
2017-05-06T01:36:26.738Z,0
2017-05-06T01:37:27.412Z,0
2017-05-06T01:38:27.045Z,0
2017-05-06T01:39:27.335Z,0
2017-05-06T01:40:26.642Z,0
2017-05-06T01:41:27.627Z,0
2017-05-06T01:42:27.208Z,0
2017-05-06T01:43:26.585Z,0
2017-05-06T01:44:26.865Z,0
2017-05-06T01:45:27.445Z,0
2017-05-06T01:46:26.814Z,0
2017-05-06T01:47:26.781Z,0
2017-05-06T01:48:27.102Z,0
2017-05-06T01:49:27.133Z,0
2017-05-06T01:50:27.102Z,0
2017-05-06T01:51:26.711Z,0
2017-05-06T01:52:27.015Z,0
2017-05-06T01:53:26.664Z,0
2017-05-06T01:54:26.936Z,0
2017-05-06T01:55:26.614Z,0
2017-05-06T01:56:26.302Z,0
2017-05-06T01:57:26.894Z,0
2017-05-06T01:58:26.944Z,0
2017-05-06T01:59:26.853Z,0
2017-05-06T02:00:26.524Z,0
2017-05-06T02:01:26.522Z,0
2017-05-06T02:02:26.805Z,0
2017-05-06T02:03:26.809Z,0
2017-05-06T02:04:26.764Z,0
2017-05-06T02:05:26.415Z,0
2017-05-06T02:06:26.687Z,0
2017-05-06T02:07:26.962Z,0
2017-05-06T02:08:26.064Z,0
2017-05-06T02:09:27.117Z,0
2017-05-06T02:10:26.920Z,0
2017-05-06T02:11:26.302Z,0
2017-05-06T02:12:26.868Z,0
2017-05-06T02:13:26.544Z,0
2017-05-06T02:14:26.822Z,0
2017-05-06T02:15:26.202Z,0
2017-05-06T02:16:26.490Z,0
2017-05-06T02:17:26.153Z,0
2017-05-06T02:18:26.756Z,0
2017-05-06T02:19:26.723Z,0
2017-05-06T02:20:26.085Z,0
2017-05-06T02:21:26.675Z,0
2017-05-06T02:22:26.675Z,0
2017-05-06T02:23:26.349Z,0
2017-05-06T02:24:26.369Z,0
2017-05-06T02:25:26.274Z,0
2017-05-06T02:26:26.564Z,0
2017-05-06T02:27:26.566Z,0
2017-05-06T02:28:26.241Z,0
2017-05-06T02:29:25.944Z,0
2017-05-06T02:30:26.187Z,0
2017-05-06T02:31:26.173Z,0
2017-05-06T02:32:25.825Z,0
2017-05-06T02:33:26.124Z,0
2017-05-06T02:34:26.428Z,0
2017-05-06T02:35:25.870Z,0
2017-05-06T02:36:26.054Z,0
2017-05-06T02:37:26.007Z,0
2017-05-06T02:38:25.994Z,0
2017-05-06T02:39:25.749Z,0
2017-05-06T02:40:25.926Z,0
2017-05-06T02:41:26.255Z,0
2017-05-06T02:42:25.932Z,0
2017-05-06T02:43:25.904Z,0
2017-05-06T02:44:26.213Z,0
2017-05-06T02:45:25.967Z,0
2017-05-06T02:46:25.243Z,0
2017-05-06T02:47:25.803Z,0
2017-05-06T02:48:26.102Z,0
2017-05-06T02:49:25.762Z,0
2017-05-06T02:50:25.514Z,0
2017-05-06T02:51:25.426Z,0
2017-05-06T02:52:25.794Z,0
2017-05-06T02:53:25.991Z,0
2017-05-06T02:54:25.377Z,0
2017-05-06T02:55:25.438Z,0
2017-05-06T02:56:25.701Z,0
2017-05-06T02:57:25.303Z,0
2017-05-06T02:58:25.253Z,0
2017-05-06T02:59:25.536Z,0
2017-05-06T03:00:24.904Z,0
2017-05-06T03:01:25.504Z,0
2017-05-06T03:02:24.865Z,0
2017-05-06T03:03:25.456Z,0
2017-05-06T03:04:25.124Z,0
2017-05-06T03:05:24.914Z,0
2017-05-06T03:06:25.125Z,0
2017-05-06T03:07:25.692Z,0
2017-05-06T03:08:25.366Z,0
2017-05-06T03:09:25.643Z,0
2017-05-06T03:10:25.354Z,0
2017-05-06T03:11:25.604Z,0
2017-05-06T03:12:24.963Z,0
2017-05-06T03:13:25.240Z,0
2017-05-06T03:14:24.979Z,0
2017-05-06T03:15:25.197Z,0
2017-05-06T03:16:25.163Z,0
2017-05-06T03:17:24.844Z,0
2017-05-06T03:18:25.222Z,0
2017-05-06T03:19:25.459Z,0
2017-05-06T03:20:24.801Z,0
2017-05-06T03:21:24.764Z,0
2017-05-06T03:22:24.424Z,0
2017-05-06T03:23:24.398Z,0
2017-05-06T03:24:25.160Z,0
2017-05-06T03:25:24.681Z,0
2017-05-06T03:26:25.264Z,0
2017-05-06T03:27:24.615Z,0
2017-05-06T03:28:24.638Z,0
2017-05-06T03:29:25.264Z,0
2017-05-06T03:30:24.881Z,0
2017-05-06T03:31:24.843Z,0
2017-05-06T03:32:24.554Z,0
2017-05-06T03:33:24.809Z,0
2017-05-06T03:34:24.464Z,0
2017-05-06T03:35:24.434Z,0
2017-05-06T03:36:24.130Z,0
2017-05-06T03:37:24.408Z,0
2017-05-06T03:38:25.010Z,0
2017-05-06T03:39:24.338Z,0
2017-05-06T03:40:24.642Z,0
2017-05-06T03:41:24.316Z,0
2017-05-06T03:42:24.604Z,0
2017-05-06T03:43:23.957Z,0
2017-05-06T03:44:24.261Z,0
2017-05-06T03:45:24.534Z,0
2017-05-06T03:46:24.221Z,0
2017-05-06T03:47:24.550Z,0
2017-05-06T03:48:24.478Z,0
2017-05-06T03:49:24.432Z,0
2017-05-06T03:50:24.117Z,0
2017-05-06T03:51:24.396Z,0
2017-05-06T03:52:24.136Z,0
2017-05-06T03:53:24.425Z,0
2017-05-06T03:54:24.336Z,0
2017-05-06T03:55:24.330Z,0
2017-05-06T03:56:24.325Z,0
2017-05-06T03:57:24.264Z,0
2017-05-06T03:58:24.002Z,0
2017-05-06T03:59:23.962Z,0
2017-05-06T04:00:24.499Z,0
2017-05-06T04:01:24.607Z,0
2017-05-06T04:02:24.180Z,0
2017-05-06T04:03:24.180Z,0
2017-05-06T04:04:24.131Z,0
2017-05-06T04:05:24.096Z,0
2017-05-06T04:06:24.108Z,0
2017-05-06T04:07:24.156Z,0
2017-05-06T04:08:24.425Z,5
2017-05-06T04:09:24.365Z,5
2017-05-06T04:10:23.993Z,5
2017-05-06T04:11:24.327Z,5
2017-05-06T04:12:23.990Z,5
2017-05-06T04:13:24.239Z,5
2017-05-06T04:14:23.894Z,5
2017-05-06T04:15:24.281Z,5
2017-05-06T04:16:23.870Z,5
2017-05-06T04:17:23.532Z,5
2017-05-06T04:18:23.510Z,5
2017-05-06T04:19:24.115Z,5
2017-05-06T04:20:24.101Z,5
2017-05-06T04:21:23.444Z,5
2017-05-06T04:22:23.109Z,5
2017-05-06T04:23:23.693Z,5
2017-05-06T04:24:23.977Z,5
2017-05-06T04:25:23.088Z,10
2017-05-06T04:26:23.706Z,10
2017-05-06T04:27:23.629Z,10
2017-05-06T04:28:22.952Z,10
2017-05-06T04:29:23.672Z,10
2017-05-06T04:30:23.642Z,10
2017-05-06T04:31:23.212Z,10
2017-05-06T04:32:23.218Z,10
2017-05-06T04:33:23.803Z,10
2017-05-06T04:34:23.161Z,10
2017-05-06T04:35:23.842Z,10
2017-05-06T04:36:23.163Z,10
2017-05-06T04:37:23.091Z,15
2017-05-06T04:38:23.421Z,15
2017-05-06T04:39:23.672Z,15
2017-05-06T04:40:23.007Z,15
2017-05-06T04:41:23.033Z,15
2017-05-06T04:42:23.314Z,15
2017-05-06T04:43:23.273Z,15
2017-05-06T04:44:23.228Z,15
2017-05-06T04:45:23.583Z,20
2017-05-06T04:46:23.282Z,20
2017-05-06T04:47:22.879Z,20
2017-05-06T04:48:23.147Z,20
2017-05-06T04:49:23.152Z,20
2017-05-06T04:50:23.112Z,20
2017-05-06T04:51:23.112Z,20
2017-05-06T04:52:23.121Z,25
2017-05-06T04:53:23.155Z,25
2017-05-06T04:54:22.733Z,25
2017-05-06T04:55:23.009Z,25
2017-05-06T04:56:22.688Z,30
2017-05-06T04:57:23.277Z,25
2017-05-06T04:58:22.942Z,30
2017-05-06T04:59:23.236Z,30
2017-05-06T05:00:21.963Z,30
2017-05-06T05:01:22.873Z,30
2017-05-06T05:02:23.264Z,30
2017-05-06T05:03:22.534Z,35
2017-05-06T05:04:22.822Z,35
2017-05-06T05:05:22.217Z,35
2017-05-06T05:06:22.774Z,35
2017-05-06T05:07:22.514Z,35
2017-05-06T05:08:22.421Z,35
2017-05-06T05:09:22.463Z,35
2017-05-06T05:10:22.981Z,40
2017-05-06T05:11:22.374Z,40
2017-05-06T05:12:22.020Z,40
2017-05-06T05:13:22.669Z,40
2017-05-06T05:14:22.643Z,40
2017-05-06T05:15:22.894Z,40
2017-05-06T05:16:22.564Z,40
2017-05-06T05:17:22.213Z,40
2017-05-06T05:18:21.926Z,40
2017-05-06T05:19:22.203Z,40
2017-05-06T05:20:21.853Z,40
2017-05-06T05:21:22.155Z,40
2017-05-06T05:22:22.107Z,50
2017-05-06T05:23:22.722Z,50
2017-05-06T05:24:22.093Z,50
2017-05-06T05:25:22.088Z,45
2017-05-06T05:26:22.642Z,45
2017-05-06T05:27:22.011Z,45
2017-05-06T05:28:22.602Z,50
2017-05-06T05:29:22.039Z,55
2017-05-06T05:30:21.979Z,50
2017-05-06T05:31:21.928Z,55
2017-05-06T05:32:22.520Z,55
2017-05-06T05:33:21.983Z,55
2017-05-06T05:34:22.486Z,50
2017-05-06T05:35:21.832Z,55
2017-05-06T05:36:21.892Z,55
2017-05-06T05:37:22.420Z,60
2017-05-06T05:38:22.116Z,65
2017-05-06T05:39:21.824Z,60
2017-05-06T05:40:21.764Z,65
2017-05-06T05:41:22.121Z,65
2017-05-06T05:42:22.068Z,70
2017-05-06T05:43:21.384Z,65
2017-05-06T05:44:21.679Z,60
2017-05-06T05:45:22.010Z,60
2017-05-06T05:46:21.945Z,65
2017-05-06T05:47:21.609Z,65
2017-05-06T05:48:22.205Z,70
2017-05-06T05:49:21.616Z,70
2017-05-06T05:50:21.893Z,65
2017-05-06T05:51:21.841Z,70
2017-05-06T05:52:21.829Z,70
2017-05-06T05:53:22.097Z,75
2017-05-06T05:54:22.172Z,75
2017-05-06T05:55:21.423Z,85
2017-05-06T05:56:21.410Z,85
2017-05-06T05:57:21.841Z,90
2017-05-06T05:58:21.679Z,95
2017-05-06T05:59:22.011Z,100
2017-05-06T06:00:21.693Z,105
2017-05-06T06:01:21.970Z,105
2017-05-06T06:02:21.929Z,110
2017-05-06T06:03:21.941Z,110
2017-05-06T06:04:21.874Z,110
2017-05-06T06:05:21.841Z,115
2017-05-06T06:06:21.257Z,115
2017-05-06T06:07:21.784Z,115
2017-05-06T06:08:21.322Z,120
2017-05-06T06:09:20.850Z,120
2017-05-06T06:10:21.736Z,125
2017-05-06T06:11:21.733Z,125
2017-05-06T06:12:21.418Z,130
2017-05-06T06:13:21.683Z,130
2017-05-06T06:14:21.643Z,140
2017-05-06T06:15:21.641Z,145
2017-05-06T06:16:21.688Z,145
2017-05-06T06:17:21.285Z,150
2017-05-06T06:18:21.651Z,150
2017-05-06T06:19:21.611Z,150
2017-05-06T06:20:21.351Z,150
2017-05-06T06:21:21.511Z,150
2017-05-06T06:22:21.189Z,150
2017-05-06T06:23:21.191Z,150
2017-05-06T06:24:20.845Z,150
2017-05-06T06:25:20.548Z,155
2017-05-06T06:26:21.113Z,150
2017-05-06T06:27:21.419Z,155
2017-05-06T06:28:20.771Z,160
2017-05-06T06:29:21.393Z,160
2017-05-06T06:30:21.339Z,165
2017-05-06T06:31:20.376Z,165
2017-05-06T06:32:20.683Z,165
2017-05-06T06:33:20.344Z,165
2017-05-06T06:34:20.630Z,160
2017-05-06T06:35:21.222Z,150
2017-05-06T06:36:21.228Z,150
2017-05-06T06:37:21.243Z,150
2017-05-06T06:38:21.232Z,150
2017-05-06T06:39:20.869Z,165
2017-05-06T06:40:20.813Z,180
2017-05-06T06:41:20.806Z,190
2017-05-06T06:42:20.172Z,200
2017-05-06T06:43:21.085Z,200
2017-05-06T06:44:20.733Z,225
2017-05-06T06:45:20.742Z,220
2017-05-06T06:46:20.702Z,215
2017-05-06T06:47:20.780Z,225
2017-05-06T06:48:20.787Z,230
2017-05-06T06:49:20.146Z,245
2017-05-06T06:50:20.630Z,225
2017-05-06T06:51:20.320Z,230
2017-05-06T06:52:20.911Z,235
2017-05-06T06:53:20.591Z,230
2017-05-06T06:54:20.579Z,235
2017-05-06T06:55:20.541Z,245
2017-05-06T06:56:20.821Z,245
2017-05-06T06:57:20.820Z,255
2017-05-06T06:58:20.479Z,265
2017-05-06T06:59:20.498Z,275
2017-05-06T07:00:20.759Z,265
2017-05-06T07:01:20.742Z,285
2017-05-06T07:02:20.110Z,285
2017-05-06T07:03:20.491Z,290
2017-05-06T07:04:20.667Z,280
2017-05-06T07:05:20.643Z,270
2017-05-06T07:06:20.377Z,285
2017-05-06T07:07:20.812Z,290
2017-05-06T07:08:20.383Z,270
2017-05-06T07:09:20.284Z,280
2017-05-06T07:10:20.283Z,195
2017-05-06T07:11:20.229Z,195
2017-05-06T07:12:19.621Z,215
2017-05-06T07:13:20.220Z,225
2017-05-06T07:14:19.897Z,250
2017-05-06T07:15:20.481Z,320
2017-05-06T07:16:20.463Z,320
2017-05-06T07:17:20.304Z,320
2017-05-06T07:18:20.198Z,320
2017-05-06T07:19:19.546Z,315
2017-05-06T07:20:20.420Z,300
2017-05-06T07:21:19.448Z,305
2017-05-06T07:22:20.350Z,320
2017-05-06T07:23:20.018Z,315
2017-05-06T07:24:19.995Z,325
2017-05-06T07:25:20.008Z,350
2017-05-06T07:26:20.312Z,325
2017-05-06T07:27:19.738Z,260
2017-05-06T07:28:19.325Z,290
2017-05-06T07:29:19.920Z,270
2017-05-06T07:30:19.693Z,355
2017-05-06T07:31:19.917Z,350
2017-05-06T07:32:19.650Z,340
2017-05-06T07:33:19.843Z,370
2017-05-06T07:34:19.860Z,370
2017-05-06T07:35:19.825Z,355
2017-05-06T07:36:20.091Z,355
2017-05-06T07:37:20.071Z,325
2017-05-06T07:38:19.831Z,335
2017-05-06T07:39:19.431Z,340
2017-05-06T07:40:19.493Z,365
2017-05-06T07:41:19.702Z,370
2017-05-06T07:42:19.369Z,315
2017-05-06T07:43:19.388Z,285
2017-05-06T07:44:19.345Z,220
2017-05-06T07:45:19.333Z,220
2017-05-06T07:46:19.959Z,265
2017-05-06T07:47:19.613Z,435
2017-05-06T07:48:19.299Z,270
2017-05-06T07:49:19.257Z,390
2017-05-06T07:50:19.281Z,255
2017-05-06T07:51:19.536Z,390
2017-05-06T07:52:19.284Z,295
2017-05-06T07:53:19.207Z,270
2017-05-06T07:54:19.490Z,270
2017-05-06T07:55:19.543Z,350
2017-05-06T07:56:19.541Z,280
2017-05-06T07:57:19.745Z,375
2017-05-06T07:58:19.469Z,570
2017-05-06T07:59:19.447Z,1175
2017-05-06T08:00:19.698Z,435
2017-05-06T08:01:19.384Z,785
2017-05-06T08:02:19.442Z,660
2017-05-06T08:03:19.348Z,375
2017-05-06T08:04:19.380Z,990
2017-05-06T08:05:19.348Z,950
2017-05-06T08:06:19.322Z,395
2017-05-06T08:07:19.783Z,305
2017-05-06T08:08:19.415Z,575
2017-05-06T08:09:19.286Z,290
2017-05-06T08:10:19.238Z,1230
2017-05-06T08:11:19.567Z,645
2017-05-06T08:12:19.241Z,475
2017-05-06T08:13:18.898Z,1075
2017-05-06T08:14:19.519Z,825
2017-05-06T08:15:19.511Z,1210
2017-05-06T08:16:19.318Z,445
2017-05-06T08:17:19.480Z,560
2017-05-06T08:18:19.523Z,395
2017-05-06T08:19:19.437Z,330
2017-05-06T08:20:19.423Z,330
2017-05-06T08:21:19.511Z,340
2017-05-06T08:22:19.435Z,335
2017-05-06T08:23:19.409Z,650
2017-05-06T08:24:19.379Z,1060
2017-05-06T08:25:19.382Z,1400
2017-05-06T08:26:19.402Z,625
2017-05-06T08:27:18.746Z,1360
2017-05-06T08:28:19.003Z,1375
2017-05-06T08:29:19.003Z,1020
2017-05-06T08:30:19.016Z,1315
2017-05-06T08:31:18.977Z,385
2017-05-06T08:32:18.643Z,430
2017-05-06T08:33:18.994Z,585
2017-05-06T08:34:18.344Z,1320
2017-05-06T08:35:18.915Z,1065
2017-05-06T08:36:18.938Z,730
2017-05-06T08:37:19.013Z,1445
2017-05-06T08:38:18.904Z,1335
2017-05-06T08:39:18.926Z,1475
2017-05-06T08:40:18.868Z,710
2017-05-06T08:41:18.871Z,1090
2017-05-06T08:42:19.432Z,1365
2017-05-06T08:43:18.914Z,1435
2017-05-06T08:44:18.841Z,1380
2017-05-06T08:45:18.834Z,730
2017-05-06T08:46:18.823Z,1395
2017-05-06T08:47:18.814Z,1310
2017-05-06T08:48:19.107Z,1105
2017-05-06T08:49:18.783Z,1340
2017-05-06T08:50:18.456Z,1310
2017-05-06T08:51:18.164Z,1205
2017-05-06T08:52:18.778Z,1230
2017-05-06T08:53:19.063Z,1260
2017-05-06T08:54:18.452Z,1260
2017-05-06T08:55:19.060Z,1080
2017-05-06T08:56:19.043Z,1230
2017-05-06T08:57:19.078Z,1530
2017-05-06T08:58:19.065Z,1575
2017-05-06T08:59:18.783Z,1305
2017-05-06T09:00:19.025Z,1160
2017-05-06T09:01:18.398Z,1395
2017-05-06T09:02:19.045Z,1430
2017-05-06T09:03:19.005Z,1385
2017-05-06T09:04:19.001Z,1405
2017-05-06T09:05:18.071Z,1440
2017-05-06T09:06:18.683Z,1390
2017-05-06T09:07:19.007Z,1400
2017-05-06T09:08:19.109Z,1370
2017-05-06T09:09:18.983Z,1385
2017-05-06T09:10:18.426Z,1385
2017-05-06T09:11:18.964Z,1360
2017-05-06T09:12:18.808Z,1300
2017-05-06T09:13:18.362Z,1310
2017-05-06T09:14:18.742Z,1300
2017-05-06T09:15:18.034Z,1340
2017-05-06T09:16:18.320Z,1325
2017-05-06T09:17:18.954Z,1250
2017-05-06T09:18:18.373Z,1225
2017-05-06T09:19:18.016Z,1300
2017-05-06T09:20:18.930Z,1295
2017-05-06T09:21:18.302Z,1365
2017-05-06T09:22:18.903Z,1345
2017-05-06T09:23:18.883Z,1225
2017-05-06T09:24:18.892Z,1200
2017-05-06T09:25:17.964Z,1305
2017-05-06T09:26:18.273Z,1230
2017-05-06T09:27:18.339Z,1275
2017-05-06T09:28:18.879Z,1340
2017-05-06T09:29:18.657Z,1270
2017-05-06T09:30:18.273Z,1205
2017-05-06T09:31:18.241Z,1195
2017-05-06T09:32:18.245Z,1255
2017-05-06T09:33:17.929Z,1240
2017-05-06T09:34:18.547Z,1190
2017-05-06T09:35:18.246Z,1210
2017-05-06T09:36:18.522Z,1195
2017-05-06T09:37:18.264Z,1170
2017-05-06T09:38:18.834Z,965
2017-05-06T09:39:18.292Z,1095
2017-05-06T09:40:18.188Z,655
2017-05-06T09:41:18.614Z,1110
2017-05-06T09:42:17.912Z,1180
2017-05-06T09:43:18.525Z,1140
2017-05-06T09:44:18.516Z,1145
2017-05-06T09:45:18.537Z,1120
2017-05-06T09:46:18.163Z,1085
2017-05-06T09:47:18.544Z,1035
2017-05-06T09:48:18.883Z,1035
2017-05-06T09:49:18.841Z,1095
2017-05-06T09:50:18.456Z,1065
2017-05-06T09:51:18.475Z,1090
2017-05-06T09:52:18.139Z,1055
2017-05-06T09:53:18.468Z,1025
2017-05-06T09:54:18.437Z,1040
2017-05-06T09:55:18.433Z,1025
2017-05-06T09:56:18.121Z,1010
2017-05-06T09:57:18.463Z,1000
2017-05-06T09:58:18.422Z,1010
2017-05-06T09:59:18.404Z,1035
2017-05-06T10:00:18.393Z,1000
2017-05-06T10:01:18.692Z,1010
2017-05-06T10:02:18.478Z,1000
2017-05-06T10:03:18.477Z,940
2017-05-06T10:04:18.376Z,975
2017-05-06T10:05:18.073Z,960
2017-05-06T10:06:18.369Z,935
2017-05-06T10:07:18.351Z,905
2017-05-06T10:08:18.668Z,265
2017-05-06T10:09:18.042Z,880
2017-05-06T10:10:18.032Z,880
2017-05-06T10:11:18.327Z,710
2017-05-06T10:12:18.365Z,440
2017-05-06T10:13:18.614Z,380
2017-05-06T10:14:18.032Z,380
2017-05-06T10:15:18.294Z,375
2017-05-06T10:16:18.332Z,385
2017-05-06T10:17:17.675Z,380
2017-05-06T10:18:18.292Z,375
2017-05-06T10:19:17.968Z,380
2017-05-06T10:20:18.386Z,375
2017-05-06T10:21:18.342Z,380
2017-05-06T10:22:17.441Z,395
2017-05-06T10:23:17.720Z,420
2017-05-06T10:24:18.607Z,355
2017-05-06T10:25:18.201Z,250
2017-05-06T10:26:18.224Z,395
2017-05-06T10:27:18.586Z,265
2017-05-06T10:28:18.543Z,380
2017-05-06T10:29:18.194Z,380
2017-05-06T10:30:17.971Z,370
2017-05-06T10:31:18.168Z,375
2017-05-06T10:32:17.843Z,380
2017-05-06T10:33:18.134Z,380
2017-05-06T10:34:18.152Z,390
2017-05-06T10:35:18.125Z,390
2017-05-06T10:36:18.122Z,400
2017-05-06T10:37:17.790Z,405
2017-05-06T10:38:18.095Z,405
2017-05-06T10:39:17.826Z,405
2017-05-06T10:40:17.511Z,255
2017-05-06T10:41:18.410Z,405
2017-05-06T10:42:17.785Z,395
2017-05-06T10:43:17.725Z,250
2017-05-06T10:44:17.785Z,280
2017-05-06T10:45:17.801Z,425
2017-05-06T10:46:18.345Z,330
2017-05-06T10:47:18.317Z,415
2017-05-06T10:48:17.787Z,395
2017-05-06T10:49:17.724Z,295
2017-05-06T10:50:18.004Z,310
2017-05-06T10:51:17.654Z,295
2017-05-06T10:52:18.266Z,270
2017-05-06T10:53:18.072Z,300
2017-05-06T10:54:17.615Z,380
2017-05-06T10:55:18.026Z,390
2017-05-06T10:56:18.215Z,390
2017-05-06T10:57:17.615Z,400
2017-05-06T10:58:17.668Z,390
2017-05-06T10:59:17.990Z,255
2017-05-06T11:00:18.173Z,275
2017-05-06T11:01:18.179Z,225
2017-05-06T11:02:17.337Z,230
2017-05-06T11:03:18.126Z,310
2017-05-06T11:04:17.819Z,385
2017-05-06T11:05:17.883Z,405
2017-05-06T11:06:18.130Z,410
2017-05-06T11:07:17.472Z,405
2017-05-06T11:08:17.772Z,375
2017-05-06T11:09:17.209Z,385
2017-05-06T11:10:17.775Z,385
2017-05-06T11:11:18.122Z,380
2017-05-06T11:12:18.033Z,380
2017-05-06T11:13:17.729Z,385
2017-05-06T11:14:17.410Z,385
2017-05-06T11:15:17.147Z,380
2017-05-06T11:16:17.398Z,375
2017-05-06T11:17:17.695Z,365
2017-05-06T11:18:17.674Z,355
2017-05-06T11:19:17.363Z,350
2017-05-06T11:20:17.022Z,350
2017-05-06T11:21:17.946Z,305
2017-05-06T11:22:17.700Z,300
2017-05-06T11:23:17.714Z,385
2017-05-06T11:24:17.312Z,395
2017-05-06T11:25:16.965Z,400
2017-05-06T11:26:17.962Z,410
2017-05-06T11:27:17.884Z,410
2017-05-06T11:28:17.253Z,260
2017-05-06T11:29:17.355Z,395
2017-05-06T11:30:17.863Z,260
2017-05-06T11:31:17.521Z,390
2017-05-06T11:32:17.523Z,280
2017-05-06T11:33:17.536Z,400
2017-05-06T11:34:17.497Z,255
2017-05-06T11:35:17.164Z,250
2017-05-06T11:36:17.503Z,295
2017-05-06T11:37:17.472Z,250
2017-05-06T11:38:17.190Z,265
2017-05-06T11:39:17.759Z,395
2017-05-06T11:40:17.163Z,370
2017-05-06T11:41:17.445Z,370
2017-05-06T11:42:17.405Z,370
2017-05-06T11:43:17.392Z,235
2017-05-06T11:44:17.706Z,190
2017-05-06T11:45:17.065Z,190
2017-05-06T11:46:17.356Z,195
2017-05-06T11:47:17.378Z,225
2017-05-06T11:48:17.344Z,380
2017-05-06T11:49:17.371Z,345
2017-05-06T11:50:17.346Z,370
2017-05-06T11:51:17.645Z,220
2017-05-06T11:52:17.324Z,215
2017-05-06T11:53:17.313Z,210
2017-05-06T11:54:17.349Z,240
2017-05-06T11:55:17.301Z,210
2017-05-06T11:56:17.275Z,215
2017-05-06T11:57:17.577Z,280
2017-05-06T11:58:17.291Z,225
2017-05-06T11:59:17.343Z,210
2017-05-06T12:00:17.243Z,220
2017-05-06T12:01:16.924Z,265
2017-05-06T12:02:17.192Z,220
2017-05-06T12:03:17.201Z,225
2017-05-06T12:04:17.186Z,245
2017-05-06T12:05:17.511Z,330
2017-05-06T12:06:17.460Z,285
2017-05-06T12:07:17.263Z,370
2017-05-06T12:08:16.837Z,360
2017-05-06T12:09:17.212Z,300
2017-05-06T12:10:17.113Z,300
2017-05-06T12:11:17.182Z,290
2017-05-06T12:12:16.787Z,295
2017-05-06T12:13:17.135Z,345
2017-05-06T12:14:17.084Z,335
2017-05-06T12:15:16.755Z,255
2017-05-06T12:16:17.174Z,185
2017-05-06T12:17:17.384Z,175
2017-05-06T12:18:17.451Z,180
2017-05-06T12:19:17.402Z,295
2017-05-06T12:20:17.440Z,200
2017-05-06T12:21:17.013Z,195
2017-05-06T12:22:17.045Z,220
2017-05-06T12:23:17.285Z,315
2017-05-06T12:24:17.023Z,350
2017-05-06T12:25:16.983Z,355
2017-05-06T12:26:17.307Z,360
2017-05-06T12:27:16.943Z,350
2017-05-06T12:28:17.005Z,355
2017-05-06T12:29:16.925Z,350
2017-05-06T12:30:16.950Z,290
2017-05-06T12:31:17.202Z,280
2017-05-06T12:32:17.209Z,350
2017-05-06T12:33:17.202Z,235
2017-05-06T12:34:16.859Z,315
2017-05-06T12:35:16.855Z,360
2017-05-06T12:36:17.152Z,360
2017-05-06T12:37:16.908Z,345
2017-05-06T12:38:17.154Z,340
2017-05-06T12:39:16.856Z,285
2017-05-06T12:40:16.813Z,305
2017-05-06T12:41:16.942Z,260
2017-05-06T12:42:17.114Z,240
2017-05-06T12:43:17.103Z,180
2017-05-06T12:44:17.084Z,205
2017-05-06T12:45:17.052Z,265
2017-05-06T12:46:17.060Z,310
2017-05-06T12:47:16.721Z,325
2017-05-06T12:48:17.042Z,325
2017-05-06T12:49:17.022Z,320
2017-05-06T12:50:17.013Z,310
2017-05-06T12:51:17.005Z,225
2017-05-06T12:52:17.014Z,215
2017-05-06T12:53:16.994Z,220
2017-05-06T12:54:16.963Z,210
2017-05-06T12:55:16.963Z,210
2017-05-06T12:56:16.956Z,255
2017-05-06T12:57:16.936Z,265
2017-05-06T12:58:16.664Z,255
2017-05-06T12:59:16.613Z,280
2017-05-06T13:00:16.895Z,310
2017-05-06T13:01:16.578Z,320
2017-05-06T13:02:16.562Z,330
2017-05-06T13:03:16.910Z,320
2017-05-06T13:04:16.977Z,315
2017-05-06T13:05:16.851Z,315
2017-05-06T13:06:16.599Z,310
2017-05-06T13:07:16.842Z,315
2017-05-06T13:08:16.946Z,320
2017-05-06T13:09:16.539Z,300
2017-05-06T13:10:16.504Z,290
2017-05-06T13:11:16.475Z,250
2017-05-06T13:12:16.571Z,250
2017-05-06T13:13:16.519Z,240
2017-05-06T13:14:16.463Z,250
2017-05-06T13:15:16.197Z,270
2017-05-06T13:16:16.895Z,235
2017-05-06T13:17:16.412Z,225
2017-05-06T13:18:15.788Z,275
2017-05-06T13:19:16.520Z,290
2017-05-06T13:20:16.121Z,310
2017-05-06T13:21:16.454Z,250
2017-05-06T13:22:16.691Z,260
2017-05-06T13:23:16.359Z,250
2017-05-06T13:24:16.651Z,240
2017-05-06T13:25:16.320Z,195
2017-05-06T13:26:16.012Z,220
2017-05-06T13:27:16.317Z,240
2017-05-06T13:28:16.008Z,205
2017-05-06T13:29:16.579Z,260
2017-05-06T13:30:16.634Z,215
2017-05-06T13:31:16.288Z,185
2017-05-06T13:32:16.278Z,185
2017-05-06T13:33:16.551Z,175
2017-05-06T13:34:16.243Z,170
2017-05-06T13:35:15.918Z,175
2017-05-06T13:36:16.531Z,180
2017-05-06T13:37:16.209Z,265
2017-05-06T13:38:15.894Z,255
2017-05-06T13:39:16.253Z,240
2017-05-06T13:40:16.359Z,260
2017-05-06T13:41:15.563Z,265
2017-05-06T13:42:15.948Z,245
2017-05-06T13:43:16.454Z,260
2017-05-06T13:44:16.205Z,250
2017-05-06T13:45:16.252Z,180
2017-05-06T13:46:15.871Z,250
2017-05-06T13:47:15.841Z,250
2017-05-06T13:48:16.406Z,175
2017-05-06T13:49:16.383Z,260
2017-05-06T13:50:16.131Z,245
2017-05-06T13:51:16.046Z,270
2017-05-06T13:52:16.063Z,270
2017-05-06T13:53:15.805Z,260
2017-05-06T13:54:16.050Z,260
2017-05-06T13:55:16.321Z,255
2017-05-06T13:56:15.751Z,250
2017-05-06T13:57:16.004Z,240
2017-05-06T13:58:15.700Z,240
2017-05-06T13:59:15.983Z,240
2017-05-06T14:00:15.446Z,235
2017-05-06T14:01:15.962Z,220
2017-05-06T14:02:16.269Z,230
2017-05-06T14:03:16.010Z,225
2017-05-06T14:04:16.351Z,235